sensor_id;sensor_type;location;lat;lon;timestamp;P1;durP1;ratioP1;P2;durP2;ratioP2
11572;SDS011;5842;52.426;4.886;2023-01-29T00:16:02;13.47;;;8.73;;
11572;SDS011;5842;52.426;4.886;2023-01-29T00:31:29;13.43;;;8.40;;
11572;SDS011;5842;52.426;4.886;2023-01-29T00:33:57;13.80;;;8.40;;
11572;SDS011;5842;52.426;4.886;2023-01-29T00:53:52;11.40;;;8.03;;
11572;SDS011;5842;52.426;4.886;2023-01-29T00:56:43;10.70;;;7.33;;
11572;SDS011;5842;52.426;4.886;2023-01-29T00:59:19;9.30;;;7.27;;
11572;SDS011;5842;52.426;4.886;2023-01-29T01:02:00;10.03;;;7.17;;
11572;SDS011;5842;52.426;4.886;2023-01-29T01:04:44;10.77;;;7.80;;
11572;SDS011;5842;52.426;4.886;2023-01-29T01:07:37;9.57;;;7.23;;
11572;SDS011;5842;52.426;4.886;2023-01-29T01:13:53;9.70;;;7.50;;
11572;SDS011;5842;52.426;4.886;2023-01-29T01:19:55;13.90;;;8.23;;
11572;SDS011;5842;52.426;4.886;2023-01-29T01:22:23;10.73;;;8.10;;
11572;SDS011;5842;52.426;4.886;2023-01-29T02:02:39;13.10;;;10.07;;
11572;SDS011;5842;52.426;4.886;2023-01-29T02:09:12;16.60;;;12.50;;
11572;SDS011;5842;52.426;4.886;2023-01-29T02:12:39;16.67;;;11.57;;
11572;SDS011;5842;52.426;4.886;2023-01-29T02:15:18;21.03;;;13.53;;
11572;SDS011;5842;52.426;4.886;2023-01-29T02:18:08;19.63;;;13.63;;
11572;SDS011;5842;52.426;4.886;2023-01-29T02:21:06;21.50;;;13.53;;
11572;SDS011;5842;52.426;4.886;2023-01-29T02:27:31;22.97;;;13.60;;
11572;SDS011;5842;52.426;4.886;2023-01-29T02:54:49;20.03;;;13.57;;
11572;SDS011;5842;52.426;4.886;2023-01-29T03:11:20;20.73;;;14.20;;
11572;SDS011;5842;52.426;4.886;2023-01-29T03:13:49;19.97;;;14.17;;
11572;SDS011;5842;52.426;4.886;2023-01-29T03:22:40;23.70;;;14.53;;
11572;SDS011;5842;52.426;4.886;2023-01-29T03:33:01;21.03;;;15.13;;
11572;SDS011;5842;52.426;4.886;2023-01-29T03:35:59;24.03;;;15.87;;
11572;SDS011;5842;52.426;4.886;2023-01-29T03:42:23;21.70;;;14.77;;
11572;SDS011;5842;52.426;4.886;2023-01-29T04:09:00;24.47;;;15.40;;
11572;SDS011;5842;52.426;4.886;2023-01-29T04:11:35;20.07;;;14.23;;
11572;SDS011;5842;52.426;4.886;2023-01-29T04:41:02;27.87;;;17.13;;
11572;SDS011;5842;52.426;4.886;2023-01-29T04:44:07;30.43;;;18.40;;
11572;SDS011;5842;52.426;4.886;2023-01-29T04:47:26;26.90;;;17.43;;
11572;SDS011;5842;52.426;4.886;2023-01-29T04:53:44;29.30;;;18.13;;
11572;SDS011;5842;52.426;4.886;2023-01-29T05:03:58;26.60;;;16.83;;
11572;SDS011;5842;52.426;4.886;2023-01-29T05:07:12;27.07;;;17.13;;
11572;SDS011;5842;52.426;4.886;2023-01-29T05:17:42;31.53;;;18.07;;
11572;SDS011;5842;52.426;4.886;2023-01-29T05:24:30;31.03;;;18.67;;
11572;SDS011;5842;52.426;4.886;2023-01-29T05:27:01;32.23;;;19.23;;
11572;SDS011;5842;52.426;4.886;2023-01-29T05:30:13;28.30;;;17.70;;
11572;SDS011;5842;52.426;4.886;2023-01-29T05:39:33;31.90;;;19.50;;
11572;SDS011;5842;52.426;4.886;2023-01-29T05:42:19;30.73;;;18.47;;
11572;SDS011;5842;52.426;4.886;2023-01-29T05:55:53;29.43;;;19.10;;
11572;SDS011;5842;52.426;4.886;2023-01-29T05:58:21;26.53;;;16.80;;
11572;SDS011;5842;52.426;4.886;2023-01-29T06:00:49;27.77;;;17.47;;
11572;SDS011;5842;52.426;4.886;2023-01-29T06:03:16;26.27;;;16.60;;
11572;SDS011;5842;52.426;4.886;2023-01-29T06:05:44;28.07;;;17.30;;
11572;SDS011;5842;52.426;4.886;2023-01-29T06:08:11;29.00;;;16.87;;
11572;SDS011;5842;52.426;4.886;2023-01-29T06:10:38;31.57;;;19.07;;
11572;SDS011;5842;52.426;4.886;2023-01-29T06:13:07;29.30;;;17.93;;
11572;SDS011;5842;52.426;4.886;2023-01-29T06:15:37;26.10;;;16.70;;
11572;SDS011;5842;52.426;4.886;2023-01-29T06:28:35;31.43;;;19.00;;
11572;SDS011;5842;52.426;4.886;2023-01-29T06:31:11;30.73;;;18.53;;
11572;SDS011;5842;52.426;4.886;2023-01-29T06:33:41;29.63;;;18.27;;
11572;SDS011;5842;52.426;4.886;2023-01-29T06:36:12;29.87;;;18.13;;
11572;SDS011;5842;52.426;4.886;2023-01-29T06:38:43;30.60;;;19.03;;
11572;SDS011;5842;52.426;4.886;2023-01-29T06:41:18;32.90;;;18.27;;
11572;SDS011;5842;52.426;4.886;2023-01-29T06:43:51;30.83;;;18.73;;
11572;SDS011;5842;52.426;4.886;2023-01-29T06:46:30;31.90;;;18.73;;
11572;SDS011;5842;52.426;4.886;2023-01-29T06:49:03;32.47;;;18.90;;
11572;SDS011;5842;52.426;4.886;2023-01-29T06:51:31;33.87;;;20.47;;
11572;SDS011;5842;52.426;4.886;2023-01-29T06:54:07;34.47;;;21.00;;
11572;SDS011;5842;52.426;4.886;2023-01-29T06:56:44;33.87;;;20.40;;
11572;SDS011;5842;52.426;4.886;2023-01-29T06:59:23;35.67;;;21.07;;
11572;SDS011;5842;52.426;4.886;2023-01-29T07:01:53;35.23;;;20.93;;
11572;SDS011;5842;52.426;4.886;2023-01-29T07:04:23;35.23;;;20.70;;
11572;SDS011;5842;52.426;4.886;2023-01-29T07:06:54;36.17;;;21.67;;
11572;SDS011;5842;52.426;4.886;2023-01-29T07:09:25;37.10;;;21.60;;
11572;SDS011;5842;52.426;4.886;2023-01-29T07:11:58;38.43;;;22.33;;
11572;SDS011;5842;52.426;4.886;2023-01-29T07:14:29;43.37;;;22.60;;
11572;SDS011;5842;52.426;4.886;2023-01-29T07:16:59;42.23;;;22.67;;
11572;SDS011;5842;52.426;4.886;2023-01-29T07:19:28;40.50;;;23.23;;
11572;SDS011;5842;52.426;4.886;2023-01-29T07:39:01;35.13;;;21.23;;
11572;SDS011;5842;52.426;4.886;2023-01-29T07:41:44;42.40;;;24.17;;
11572;SDS011;5842;52.426;4.886;2023-01-29T07:44:19;45.80;;;25.00;;
11572;SDS011;5842;52.426;4.886;2023-01-29T07:47:00;44.77;;;24.97;;
11572;SDS011;5842;52.426;4.886;2023-01-29T07:49:44;44.00;;;25.13;;
11572;SDS011;5842;52.426;4.886;2023-01-29T07:52:34;46.67;;;25.80;;
11572;SDS011;5842;52.426;4.886;2023-01-29T07:55:17;46.90;;;27.10;;
11572;SDS011;5842;52.426;4.886;2023-01-29T07:58:13;50.73;;;27.23;;
11572;SDS011;5842;52.426;4.886;2023-01-29T08:04:26;47.37;;;26.30;;
11572;SDS011;5842;52.426;4.886;2023-01-29T08:07:26;49.63;;;27.27;;
11572;SDS011;5842;52.426;4.886;2023-01-29T08:10:11;46.23;;;26.77;;
11572;SDS011;5842;52.426;4.886;2023-01-29T08:13:19;46.97;;;27.37;;
11572;SDS011;5842;52.426;4.886;2023-01-29T08:16:08;47.03;;;27.00;;
11572;SDS011;5842;52.426;4.886;2023-01-29T08:18:49;45.77;;;27.00;;
11572;SDS011;5842;52.426;4.886;2023-01-29T08:21:17;48.53;;;26.53;;
11572;SDS011;5842;52.426;4.886;2023-01-29T08:30:57;40.03;;;25.27;;
11572;SDS011;5842;52.426;4.886;2023-01-29T08:34:01;39.23;;;23.80;;
11572;SDS011;5842;52.426;4.886;2023-01-29T08:36:36;37.47;;;22.93;;
11572;SDS011;5842;52.426;4.886;2023-01-29T08:39:17;38.87;;;23.07;;
11572;SDS011;5842;52.426;4.886;2023-01-29T08:42:05;35.73;;;21.80;;
11572;SDS011;5842;52.426;4.886;2023-01-29T08:44:49;36.47;;;22.20;;
11572;SDS011;5842;52.426;4.886;2023-01-29T08:54:22;32.43;;;19.73;;
11572;SDS011;5842;52.426;4.886;2023-01-29T08:57:03;31.07;;;19.33;;
11572;SDS011;5842;52.426;4.886;2023-01-29T08:59:44;33.10;;;20.23;;
11572;SDS011;5842;52.426;4.886;2023-01-29T09:02:12;33.30;;;20.40;;
11572;SDS011;5842;52.426;4.886;2023-01-29T09:04:53;31.80;;;19.20;;
11572;SDS011;5842;52.426;4.886;2023-01-29T09:10:50;33.13;;;19.47;;
11572;SDS011;5842;52.426;4.886;2023-01-29T09:13:36;36.13;;;21.03;;
11572;SDS011;5842;52.426;4.886;2023-01-29T09:33:06;32.83;;;20.37;;
11572;SDS011;5842;52.426;4.886;2023-01-29T09:35:34;37.97;;;20.73;;
11572;SDS011;5842;52.426;4.886;2023-01-29T09:38:21;35.07;;;20.90;;
11572;SDS011;5842;52.426;4.886;2023-01-29T09:54:48;33.23;;;19.37;;
11572;SDS011;5842;52.426;4.886;2023-01-29T09:58:46;30.63;;;18.57;;
11572;SDS011;5842;52.426;4.886;2023-01-29T10:15:16;28.87;;;17.97;;
11572;SDS011;5842;52.426;4.886;2023-01-29T10:21:23;28.77;;;17.73;;
11572;SDS011;5842;52.426;4.886;2023-01-29T10:24:01;29.30;;;17.43;;
11572;SDS011;5842;52.426;4.886;2023-01-29T10:26:39;30.27;;;17.27;;
11572;SDS011;5842;52.426;4.886;2023-01-29T10:29:07;31.47;;;18.87;;
11572;SDS011;5842;52.426;4.886;2023-01-29T11:05:43;29.50;;;16.30;;
11572;SDS011;5842;52.426;4.886;2023-01-29T11:15:36;23.97;;;14.97;;
11572;SDS011;5842;52.426;4.886;2023-01-29T11:38:43;31.27;;;16.67;;
11572;SDS011;5842;52.426;4.886;2023-01-29T11:41:16;26.27;;;16.17;;
11572;SDS011;5842;52.426;4.886;2023-01-29T11:43:58;26.50;;;15.73;;
11572;SDS011;5842;52.426;4.886;2023-01-29T11:49:52;27.03;;;16.73;;
11572;SDS011;5842;52.426;4.886;2023-01-29T11:52:55;27.70;;;16.83;;
11572;SDS011;5842;52.426;4.886;2023-01-29T12:02:36;29.97;;;17.37;;
11572;SDS011;5842;52.426;4.886;2023-01-29T12:05:53;32.03;;;18.10;;
11572;SDS011;5842;52.426;4.886;2023-01-29T12:08:42;29.93;;;17.80;;
11572;SDS011;5842;52.426;4.886;2023-01-29T12:12:01;30.20;;;18.80;;
11572;SDS011;5842;52.426;4.886;2023-01-29T12:18:24;33.17;;;19.37;;
11572;SDS011;5842;52.426;4.886;2023-01-29T12:21:30;38.97;;;20.87;;
11572;SDS011;5842;52.426;4.886;2023-01-29T12:24:30;36.67;;;22.10;;
11572;SDS011;5842;52.426;4.886;2023-01-29T12:27:05;34.03;;;21.57;;
11572;SDS011;5842;52.426;4.886;2023-01-29T12:36:50;39.73;;;22.17;;
11572;SDS011;5842;52.426;4.886;2023-01-29T12:39:31;36.60;;;21.17;;
11572;SDS011;5842;52.426;4.886;2023-01-29T13:06:19;42.50;;;23.23;;
11572;SDS011;5842;52.426;4.886;2023-01-29T13:12:38;38.87;;;23.53;;
11572;SDS011;5842;52.426;4.886;2023-01-29T13:18:40;45.10;;;24.77;;
11572;SDS011;5842;52.426;4.886;2023-01-29T13:21:23;43.10;;;25.10;;
11572;SDS011;5842;52.426;4.886;2023-01-29T13:24:19;44.50;;;24.47;;
11572;SDS011;5842;52.426;4.886;2023-01-29T13:30:32;47.73;;;26.47;;
11572;SDS011;5842;52.426;4.886;2023-01-29T13:33:42;49.50;;;25.67;;
11572;SDS011;5842;52.426;4.886;2023-01-29T14:17:38;38.90;;;21.23;;
11572;SDS011;5842;52.426;4.886;2023-01-29T14:26:42;43.07;;;20.67;;
11572;SDS011;5842;52.426;4.886;2023-01-29T14:29:41;37.43;;;19.50;;
11572;SDS011;5842;52.426;4.886;2023-01-29T14:56:32;32.87;;;17.60;;
11572;SDS011;5842;52.426;4.886;2023-01-29T14:59:12;34.43;;;17.97;;
11572;SDS011;5842;52.426;4.886;2023-01-29T15:02:04;35.10;;;18.13;;
11572;SDS011;5842;52.426;4.886;2023-01-29T15:05:06;32.17;;;17.07;;
11572;SDS011;5842;52.426;4.886;2023-01-29T15:08:31;35.40;;;17.20;;
11572;SDS011;5842;52.426;4.886;2023-01-29T15:12:16;30.30;;;17.27;;
11572;SDS011;5842;52.426;4.886;2023-01-29T15:15:07;31.53;;;17.13;;
11572;SDS011;5842;52.426;4.886;2023-01-29T15:17:55;36.03;;;18.27;;
11572;SDS011;5842;52.426;4.886;2023-01-29T15:20:35;33.47;;;17.63;;
11572;SDS011;5842;52.426;4.886;2023-01-29T15:26:56;35.00;;;18.13;;
11572;SDS011;5842;52.426;4.886;2023-01-29T15:30:16;31.63;;;17.27;;
11572;SDS011;5842;52.426;4.886;2023-01-29T15:49:34;33.97;;;18.33;;
11572;SDS011;5842;52.426;4.886;2023-01-29T15:52:12;33.87;;;17.93;;
11572;SDS011;5842;52.426;4.886;2023-01-29T16:04:53;33.57;;;18.10;;
11572;SDS011;5842;52.426;4.886;2023-01-29T16:11:23;32.87;;;17.20;;
11572;SDS011;5842;52.426;4.886;2023-01-29T16:13:51;33.87;;;17.53;;
11572;SDS011;5842;52.426;4.886;2023-01-29T16:16:19;35.10;;;17.10;;
11572;SDS011;5842;52.426;4.886;2023-01-29T16:18:50;31.70;;;17.33;;
11572;SDS011;5842;52.426;4.886;2023-01-29T16:21:25;34.57;;;16.53;;
11572;SDS011;5842;52.426;4.886;2023-01-29T16:23:57;33.57;;;16.93;;
11572;SDS011;5842;52.426;4.886;2023-01-29T16:26:30;36.83;;;16.47;;
11572;SDS011;5842;52.426;4.886;2023-01-29T16:29:08;35.20;;;16.57;;
11572;SDS011;5842;52.426;4.886;2023-01-29T16:31:37;31.53;;;16.17;;
11572;SDS011;5842;52.426;4.886;2023-01-29T16:34:08;36.30;;;16.47;;
11572;SDS011;5842;52.426;4.886;2023-01-29T16:36:49;31.03;;;16.50;;
11572;SDS011;5842;52.426;4.886;2023-01-29T16:39:17;36.47;;;17.37;;
11572;SDS011;5842;52.426;4.886;2023-01-29T16:41:57;36.80;;;18.40;;
11572;SDS011;5842;52.426;4.886;2023-01-29T16:44:46;38.43;;;18.53;;
11572;SDS011;5842;52.426;4.886;2023-01-29T16:47:24;40.17;;;18.83;;
11572;SDS011;5842;52.426;4.886;2023-01-29T16:49:54;31.53;;;17.90;;
11572;SDS011;5842;52.426;4.886;2023-01-29T16:52:38;34.03;;;17.80;;
11572;SDS011;5842;52.426;4.886;2023-01-29T16:55:24;37.53;;;18.93;;
11572;SDS011;5842;52.426;4.886;2023-01-29T16:58:29;35.40;;;19.13;;
11572;SDS011;5842;52.426;4.886;2023-01-29T17:01:06;37.60;;;19.03;;
11572;SDS011;5842;52.426;4.886;2023-01-29T17:04:46;38.10;;;19.30;;
11572;SDS011;5842;52.426;4.886;2023-01-29T17:07:15;35.93;;;17.97;;
11572;SDS011;5842;52.426;4.886;2023-01-29T17:10:54;33.40;;;17.90;;
11572;SDS011;5842;52.426;4.886;2023-01-29T17:17:21;38.47;;;18.70;;
11572;SDS011;5842;52.426;4.886;2023-01-29T17:20:30;36.73;;;17.30;;
11572;SDS011;5842;52.426;4.886;2023-01-29T17:33:15;33.53;;;16.10;;
11572;SDS011;5842;52.426;4.886;2023-01-29T17:39:49;34.57;;;17.27;;
11572;SDS011;5842;52.426;4.886;2023-01-29T17:49:02;38.10;;;18.00;;
11572;SDS011;5842;52.426;4.886;2023-01-29T18:08:23;31.70;;;15.77;;
11572;SDS011;5842;52.426;4.886;2023-01-29T18:11:02;34.20;;;15.97;;
11572;SDS011;5842;52.426;4.886;2023-01-29T18:13:38;28.63;;;16.03;;
11572;SDS011;5842;52.426;4.886;2023-01-29T18:16:14;32.67;;;16.73;;
11572;SDS011;5842;52.426;4.886;2023-01-29T18:18:51;33.30;;;16.77;;
11572;SDS011;5842;52.426;4.886;2023-01-29T18:25:10;33.33;;;18.07;;
11572;SDS011;5842;52.426;4.886;2023-01-29T18:31:16;35.10;;;18.83;;
11572;SDS011;5842;52.426;4.886;2023-01-29T18:33:43;37.70;;;18.97;;
11572;SDS011;5842;52.426;4.886;2023-01-29T18:36:11;39.40;;;20.43;;
11572;SDS011;5842;52.426;4.886;2023-01-29T18:38:41;39.53;;;23.43;;
11572;SDS011;5842;52.426;4.886;2023-01-29T18:41:09;43.13;;;22.53;;
11572;SDS011;5842;52.426;4.886;2023-01-29T18:43:36;33.07;;;20.03;;
11572;SDS011;5842;52.426;4.886;2023-01-29T18:46:06;33.33;;;19.50;;
11572;SDS011;5842;52.426;4.886;2023-01-29T18:55:39;34.80;;;19.93;;
11572;SDS011;5842;52.426;4.886;2023-01-29T18:58:06;38.63;;;20.67;;
11572;SDS011;5842;52.426;4.886;2023-01-29T19:00:35;37.53;;;21.10;;
11572;SDS011;5842;52.426;4.886;2023-01-29T19:09:47;37.47;;;21.07;;
11572;SDS011;5842;52.426;4.886;2023-01-29T19:12:16;40.67;;;20.87;;
11572;SDS011;5842;52.426;4.886;2023-01-29T19:14:43;36.53;;;21.77;;
11572;SDS011;5842;52.426;4.886;2023-01-29T19:17:12;42.70;;;21.73;;
11572;SDS011;5842;52.426;4.886;2023-01-29T19:19:40;40.40;;;21.73;;
11572;SDS011;5842;52.426;4.886;2023-01-29T19:22:08;40.50;;;21.30;;
11572;SDS011;5842;52.426;4.886;2023-01-29T19:24:35;40.43;;;22.43;;
11572;SDS011;5842;52.426;4.886;2023-01-29T19:30:50;38.00;;;21.40;;
11572;SDS011;5842;52.426;4.886;2023-01-29T19:33:34;39.63;;;22.97;;
11572;SDS011;5842;52.426;4.886;2023-01-29T19:36:33;39.17;;;22.07;;
11572;SDS011;5842;52.426;4.886;2023-01-29T20:17:51;33.10;;;17.37;;
11572;SDS011;5842;52.426;4.886;2023-01-29T20:20:45;31.40;;;17.20;;
11572;SDS011;5842;52.426;4.886;2023-01-29T20:23:14;28.50;;;15.17;;
11572;SDS011;5842;52.426;4.886;2023-01-29T20:25:43;35.77;;;16.30;;
11572;SDS011;5842;52.426;4.886;2023-01-29T20:28:12;24.57;;;14.40;;
11572;SDS011;5842;52.426;4.886;2023-01-29T20:30:43;25.73;;;12.27;;
11572;SDS011;5842;52.426;4.886;2023-01-29T20:33:11;17.93;;;8.83;;
11572;SDS011;5842;52.426;4.886;2023-01-29T20:35:39;22.53;;;8.10;;
11572;SDS011;5842;52.426;4.886;2023-01-29T20:38:06;20.53;;;7.90;;
11572;SDS011;5842;52.426;4.886;2023-01-29T20:40:33;21.47;;;7.67;;
11572;SDS011;5842;52.426;4.886;2023-01-29T20:43:02;19.13;;;7.87;;
11572;SDS011;5842;52.426;4.886;2023-01-29T20:45:30;16.07;;;7.23;;
11572;SDS011;5842;52.426;4.886;2023-01-29T20:48:01;17.20;;;8.30;;
11572;SDS011;5842;52.426;4.886;2023-01-29T20:50:29;16.23;;;8.07;;
11572;SDS011;5842;52.426;4.886;2023-01-29T20:52:56;19.70;;;8.20;;
11572;SDS011;5842;52.426;4.886;2023-01-29T20:55:23;24.43;;;8.93;;
11572;SDS011;5842;52.426;4.886;2023-01-29T20:57:51;18.23;;;7.97;;
11572;SDS011;5842;52.426;4.886;2023-01-29T21:00:19;20.03;;;8.50;;
11572;SDS011;5842;52.426;4.886;2023-01-29T21:02:46;16.97;;;8.00;;
11572;SDS011;5842;52.426;4.886;2023-01-29T21:05:17;22.93;;;8.43;;
11572;SDS011;5842;52.426;4.886;2023-01-29T21:07:49;21.77;;;9.23;;
11572;SDS011;5842;52.426;4.886;2023-01-29T21:10:18;17.33;;;8.53;;
11572;SDS011;5842;52.426;4.886;2023-01-29T21:12:48;15.90;;;8.17;;
11572;SDS011;5842;52.426;4.886;2023-01-29T21:15:16;17.73;;;8.37;;
11572;SDS011;5842;52.426;4.886;2023-01-29T21:17:43;17.77;;;7.80;;
11572;SDS011;5842;52.426;4.886;2023-01-29T21:20:12;16.37;;;7.90;;
11572;SDS011;5842;52.426;4.886;2023-01-29T21:22:41;15.60;;;7.37;;
11572;SDS011;5842;52.426;4.886;2023-01-29T21:25:09;18.43;;;7.50;;
11572;SDS011;5842;52.426;4.886;2023-01-29T21:27:38;20.67;;;8.27;;
11572;SDS011;5842;52.426;4.886;2023-01-29T21:30:05;16.77;;;7.90;;
11572;SDS011;5842;52.426;4.886;2023-01-29T21:42:19;13.73;;;7.40;;
11572;SDS011;5842;52.426;4.886;2023-01-29T21:45:04;16.87;;;6.87;;
11572;SDS011;5842;52.426;4.886;2023-01-29T21:47:35;15.47;;;6.73;;
11572;SDS011;5842;52.426;4.886;2023-01-29T21:50:06;13.50;;;6.43;;
11572;SDS011;5842;52.426;4.886;2023-01-29T21:52:34;14.07;;;6.30;;
11572;SDS011;5842;52.426;4.886;2023-01-29T21:55:02;13.97;;;6.70;;
11572;SDS011;5842;52.426;4.886;2023-01-29T21:57:31;13.57;;;7.40;;
11572;SDS011;5842;52.426;4.886;2023-01-29T22:00:19;14.90;;;7.10;;
11572;SDS011;5842;52.426;4.886;2023-01-29T22:03:14;16.80;;;7.67;;
11572;SDS011;5842;52.426;4.886;2023-01-29T22:05:41;16.40;;;7.53;;
11572;SDS011;5842;52.426;4.886;2023-01-29T22:08:08;13.80;;;7.23;;
11572;SDS011;5842;52.426;4.886;2023-01-29T22:10:37;16.67;;;7.70;;
11572;SDS011;5842;52.426;4.886;2023-01-29T22:13:07;18.67;;;9.03;;
11572;SDS011;5842;52.426;4.886;2023-01-29T22:15:35;16.43;;;7.70;;
11572;SDS011;5842;52.426;4.886;2023-01-29T22:31:55;15.00;;;7.53;;
11572;SDS011;5842;52.426;4.886;2023-01-29T22:34:24;18.77;;;8.50;;
11572;SDS011;5842;52.426;4.886;2023-01-29T22:40:14;15.00;;;7.53;;
11572;SDS011;5842;52.426;4.886;2023-01-29T22:42:47;20.13;;;8.10;;
11572;SDS011;5842;52.426;4.886;2023-01-29T22:45:51;18.50;;;8.03;;
11572;SDS011;5842;52.426;4.886;2023-01-29T22:48:22;18.10;;;8.30;;
11572;SDS011;5842;52.426;4.886;2023-01-29T22:50:54;15.60;;;8.73;;
11572;SDS011;5842;52.426;4.886;2023-01-29T22:53:38;17.67;;;7.50;;
11572;SDS011;5842;52.426;4.886;2023-01-29T22:56:08;16.40;;;7.73;;
11572;SDS011;5842;52.426;4.886;2023-01-29T23:19:31;16.33;;;7.07;;
11572;SDS011;5842;52.426;4.886;2023-01-29T23:21:59;18.63;;;7.87;;
11572;SDS011;5842;52.426;4.886;2023-01-29T23:24:28;12.67;;;7.27;;
11572;SDS011;5842;52.426;4.886;2023-01-29T23:26:57;12.77;;;7.40;;
11572;SDS011;5842;52.426;4.886;2023-01-29T23:29:41;16.87;;;7.33;;
11572;SDS011;5842;52.426;4.886;2023-01-29T23:39:14;21.10;;;7.53;;
11572;SDS011;5842;52.426;4.886;2023-01-29T23:41:42;16.80;;;7.47;;
11572;SDS011;5842;52.426;4.886;2023-01-29T23:44:16;16.13;;;7.30;;
11572;SDS011;5842;52.426;4.886;2023-01-29T23:46:52;20.83;;;7.17;;
11572;SDS011;5842;52.426;4.886;2023-01-29T23:49:30;16.83;;;6.97;;
11572;SDS011;5842;52.426;4.886;2023-01-29T23:52:07;17.17;;;7.23;;
11572;SDS011;5842;52.426;4.886;2023-01-29T23:54:47;13.33;;;6.47;;
11572;SDS011;5842;52.426;4.886;2023-01-29T23:57:23;17.07;;;7.47;;
